Maldives Meteorological Service

METAR

Station
VRMM
METAR VRMM 190600Z 06008KT 8000 SCT018TCU 31/23 Q1011 NOSIG=
VRMH
METAR VRMH 190600Z 08006KT 6000 FEW019 31/24 Q1011=
VRMK
METAR VRMK 190600Z 05006KT 9000 FEW019 30/24 Q1010=
VRMT
METAR VRMT 190600Z 09005KT 9000 SCT018TCU BKN260 31/26 Q1010=
VRMG
METAR VRMG 190600Z 23005KT 9999 FEW018 FEW019CB SCT260 30/25 Q1010 CB E NOSIG=
Last Updated : 2018-02-19 11:00:58

SPECI

Station
VRMM
VRMH
VRMK
VRMT
VRMG
Last Updated : 2018-02-19 11:00:58